createdAt,value
2022-09-04T00:02:44.589Z,19.77
2022-09-04T00:05:27.994Z,19.77
2022-09-04T00:08:12.087Z,19.77
2022-09-04T00:10:44.408Z,19.70
2022-09-04T00:13:35.378Z,19.55
2022-09-04T00:16:15.255Z,19.59
2022-09-04T00:18:56.163Z,19.69
2022-09-04T00:21:50.710Z,19.70
2022-09-04T00:24:31.860Z,19.69
2022-09-04T00:27:10.914Z,19.69
2022-09-04T00:30:05.070Z,19.62
2022-09-04T00:32:50.003Z,19.62
2022-09-04T00:35:26.983Z,19.67
2022-09-04T00:38:32.635Z,19.67
2022-09-04T00:41:07.327Z,19.65
2022-09-04T00:43:55.235Z,19.66
2022-09-04T00:46:45.149Z,19.64
2022-09-04T00:49:37.864Z,19.62
2022-09-04T00:52:36.576Z,19.60
2022-09-04T00:55:16.731Z,19.59
2022-09-04T00:57:59.530Z,19.60
2022-09-04T01:00:29.211Z,19.45
2022-09-04T01:03:24.235Z,19.58
2022-09-04T01:05:57.694Z,19.56
2022-09-04T01:08:46.870Z,19.42
2022-09-04T01:11:45.225Z,19.58
2022-09-04T01:14:23.105Z,19.37
2022-09-04T01:17:26.196Z,19.55
2022-09-04T01:19:58.478Z,19.53
2022-09-04T01:22:53.258Z,19.54
2022-09-04T01:25:33.943Z,19.52
2022-09-04T01:28:05.220Z,19.50
2022-09-04T01:30:44.499Z,19.24
2022-09-04T01:33:27.275Z,19.49
2022-09-04T01:36:33.660Z,19.51
2022-09-04T01:39:02.860Z,19.45
2022-09-04T01:41:40.298Z,19.36
2022-09-04T01:44:10.544Z,19.39
2022-09-04T01:46:53.354Z,19.44
2022-09-04T01:49:58.018Z,19.33
2022-09-04T01:52:46.598Z,19.44
2022-09-04T01:55:24.340Z,19.43
2022-09-04T01:58:02.291Z,19.43
2022-09-04T02:00:35.225Z,19.27
2022-09-04T02:03:33.715Z,19.41
2022-09-04T02:06:10.996Z,19.37
2022-09-04T02:08:55.972Z,19.37
2022-09-04T02:11:33.159Z,19.35
2022-09-04T02:14:23.050Z,19.33
2022-09-04T02:17:22.461Z,19.30
2022-09-04T02:20:31.009Z,19.13
2022-09-04T02:23:30.303Z,19.08
2022-09-04T02:26:12.642Z,19.17
2022-09-04T02:28:55.401Z,19.18
2022-09-04T02:31:49.384Z,18.96
2022-09-04T02:34:50.474Z,19.12
2022-09-04T02:37:55.615Z,19.17
2022-09-04T02:40:55.472Z,19.14
2022-09-04T02:44:01.982Z,19.15
2022-09-04T02:46:47.796Z,19.14
2022-09-04T02:49:41.955Z,19.13
2022-09-04T02:52:56.641Z,19.02
2022-09-04T02:55:57.825Z,19.10
2022-09-04T02:58:40.008Z,19.08
2022-09-04T03:01:29.263Z,18.97
2022-09-04T03:04:39.162Z,19.06
2022-09-04T03:07:12.510Z,19.06
2022-09-04T03:10:13.802Z,19.05
2022-09-04T03:12:53.683Z,19.05
2022-09-04T03:15:27.987Z,19.03
2022-09-04T03:18:17.072Z,19.06
2022-09-04T03:21:02.071Z,19.04
2022-09-04T03:23:55.387Z,19.05
2022-09-04T03:26:43.972Z,19.03
2022-09-04T03:29:15.248Z,18.97
2022-09-04T03:32:16.076Z,18.96
2022-09-04T03:34:50.053Z,18.71
2022-09-04T03:37:57.158Z,18.94
2022-09-04T03:40:36.189Z,18.97
2022-09-04T03:43:23.490Z,18.88
2022-09-04T03:46:27.756Z,18.85
2022-09-04T03:49:20.597Z,18.72
2022-09-04T03:52:13.985Z,18.79
2022-09-04T03:54:58.905Z,18.78
2022-09-04T03:57:29.270Z,18.75
2022-09-04T04:00:20.586Z,18.78
2022-09-04T04:02:57.012Z,18.78
2022-09-04T04:05:40.551Z,18.78
2022-09-04T04:08:27.912Z,18.78
2022-09-04T04:11:05.452Z,18.75
2022-09-04T04:13:57.675Z,18.71
2022-09-04T04:16:40.779Z,18.69
2022-09-04T04:19:17.199Z,18.66
2022-09-04T04:22:05.334Z,18.61
2022-09-04T04:24:54.492Z,18.64
2022-09-04T04:27:28.621Z,18.58
2022-09-04T04:30:06.935Z,18.44
2022-09-04T04:32:52.245Z,18.59
2022-09-04T04:35:54.950Z,18.56
2022-09-04T04:38:28.414Z,18.55
2022-09-04T04:41:53.593Z,18.52
2022-09-04T04:44:50.314Z,18.54
2022-09-04T04:47:25.806Z,18.55
2022-09-04T04:50:27.855Z,18.53
2022-09-04T04:52:59.719Z,18.53
2022-09-04T04:55:50.744Z,18.35
2022-09-04T04:58:28.202Z,18.56
2022-09-04T05:01:06.384Z,18.36
2022-09-04T05:03:59.152Z,18.61
2022-09-04T05:06:38.860Z,18.36
2022-09-04T05:09:26.105Z,18.54
2022-09-04T05:12:02.479Z,18.46
2022-09-04T05:14:39.867Z,18.72
2022-09-04T05:17:35.525Z,18.77
2022-09-04T05:20:05.592Z,18.77
2022-09-04T05:22:46.982Z,18.61
2022-09-04T05:25:40.424Z,18.85
2022-09-04T05:28:36.132Z,18.91
2022-09-04T05:31:10.108Z,18.93
2022-09-04T05:34:10.760Z,18.94
2022-09-04T05:36:58.495Z,18.97
2022-09-04T05:39:31.161Z,19.00
2022-09-04T05:42:20.404Z,19.10
2022-09-04T05:45:05.902Z,19.10
2022-09-04T05:47:49.018Z,19.18
2022-09-04T05:50:47.789Z,19.13
2022-09-04T05:53:48.450Z,18.92
2022-09-04T05:56:34.238Z,19.30
2022-09-04T05:59:28.978Z,19.34
2022-09-04T06:01:59.825Z,19.41
2022-09-04T06:04:58.314Z,19.49
2022-09-04T06:07:56.153Z,19.52
2022-09-04T06:10:38.403Z,19.62
2022-09-04T06:13:33.264Z,19.68
2022-09-04T06:16:14.198Z,19.43
2022-09-04T06:18:53.532Z,19.86
2022-09-04T06:21:43.207Z,19.97
2022-09-04T06:24:34.952Z,20.01
2022-09-04T06:27:24.600Z,20.04
2022-09-04T06:30:06.635Z,20.13
2022-09-04T06:32:49.497Z,20.26
2022-09-04T06:35:51.865Z,20.30
2022-09-04T06:38:26.688Z,20.28
2022-09-04T06:41:09.863Z,20.36
2022-09-04T06:43:55.992Z,20.17
2022-09-04T06:46:39.683Z,20.27
2022-09-04T06:49:22.149Z,20.00
2022-09-04T06:52:20.447Z,20.39
2022-09-04T06:55:11.626Z,20.43
2022-09-04T06:58:26.087Z,20.46
2022-09-04T07:01:08.774Z,20.34
2022-09-04T07:03:59.244Z,20.29
2022-09-04T07:06:36.324Z,20.69
2022-09-04T07:09:23.638Z,20.74
2022-09-04T07:12:20.896Z,20.79
2022-09-04T07:15:22.626Z,20.34
2022-09-04T07:18:09.318Z,20.90
2022-09-04T07:20:51.475Z,20.74
2022-09-04T07:23:25.228Z,20.67
2022-09-04T07:26:20.981Z,20.77
2022-09-04T07:29:12.476Z,21.21
2022-09-04T07:32:11.217Z,21.21
2022-09-04T07:35:16.365Z,21.30
2022-09-04T07:37:50.413Z,21.35
2022-09-04T07:40:39.587Z,21.41
2022-09-04T07:43:35.315Z,21.44
2022-09-04T07:46:35.708Z,21.50
2022-09-04T07:49:16.109Z,21.62
2022-09-04T07:51:54.908Z,21.28
2022-09-04T07:54:48.838Z,21.58
2022-09-04T07:57:39.636Z,21.52
2022-09-04T08:00:18.500Z,21.37
2022-09-04T08:03:15.630Z,21.64
2022-09-04T08:05:50.157Z,21.79
2022-09-04T08:08:44.561Z,21.82
2022-09-04T08:11:38.954Z,21.83
2022-09-04T08:14:55.097Z,21.88
2022-09-04T08:17:32.064Z,21.98
2022-09-04T08:20:22.001Z,22.05
2022-09-04T08:23:11.253Z,22.13
2022-09-04T08:26:15.224Z,22.11
2022-09-04T08:29:15.199Z,22.24
2022-09-04T08:32:04.248Z,22.40
2022-09-04T08:34:56.160Z,22.49
2022-09-04T08:37:53.208Z,22.48
2022-09-04T08:40:52.082Z,22.69
2022-09-04T08:43:29.381Z,22.82
2022-09-04T08:46:08.875Z,22.93
2022-09-04T08:49:14.135Z,23.02
2022-09-04T08:52:26.889Z,23.02
2022-09-04T08:55:26.607Z,22.94
2022-09-04T08:58:31.570Z,23.21
2022-09-04T09:01:19.003Z,23.24
2022-09-04T09:04:04.643Z,23.32
2022-09-04T09:07:10.441Z,23.42
2022-09-04T09:09:59.547Z,23.56
2022-09-04T09:13:06.301Z,23.61
2022-09-04T09:15:56.587Z,23.67
2022-09-04T09:18:40.650Z,23.73
2022-09-04T09:21:18.113Z,23.76
2022-09-04T09:24:01.110Z,23.89
2022-09-04T09:26:39.398Z,23.84
2022-09-04T09:29:13.533Z,24.08
2022-09-04T09:32:04.019Z,24.17
2022-09-04T09:35:23.569Z,24.26
2022-09-04T09:38:21.548Z,24.35
2022-09-04T09:41:02.586Z,24.42
2022-09-04T09:44:07.855Z,24.52
2022-09-04T09:47:13.988Z,24.47
2022-09-04T09:49:50.784Z,24.50
2022-09-04T09:52:30.713Z,24.57
2022-09-04T09:55:19.470Z,24.66
2022-09-04T09:58:06.425Z,24.71
2022-09-04T10:00:39.122Z,24.78
2022-09-04T10:03:15.935Z,24.82
2022-09-04T10:06:11.934Z,24.78
2022-09-04T10:09:12.568Z,24.77
2022-09-04T10:11:49.588Z,24.85
2022-09-04T10:15:12.977Z,24.81
2022-09-04T10:18:10.718Z,24.86
2022-09-04T10:20:46.389Z,25.01
2022-09-04T10:23:33.186Z,25.10
2022-09-04T10:26:06.702Z,25.14
2022-09-04T10:28:43.094Z,25.17
2022-09-04T10:31:29.288Z,25.23
2022-09-04T10:34:47.000Z,25.06
2022-09-04T10:37:29.926Z,25.15
2022-09-04T10:40:35.633Z,25.10
2022-09-04T10:43:43.421Z,25.10
2022-09-04T10:46:22.905Z,25.13
2022-09-04T10:49:19.199Z,25.17
2022-09-04T10:51:49.885Z,25.20
2022-09-04T10:54:36.381Z,25.25
2022-09-04T10:57:09.367Z,25.28
2022-09-04T10:59:59.264Z,25.31
2022-09-04T11:02:45.568Z,25.30
2022-09-04T11:05:36.586Z,25.30
2022-09-04T11:08:13.918Z,25.13
2022-09-04T11:10:48.698Z,25.24
2022-09-04T11:13:56.782Z,25.25
2022-09-04T11:16:57.298Z,25.11
2022-09-04T11:19:49.150Z,25.17
2022-09-04T11:22:35.201Z,25.11
2022-09-04T11:25:12.942Z,25.10
2022-09-04T11:28:20.582Z,25.01
2022-09-04T11:31:07.180Z,24.90
2022-09-04T11:33:53.882Z,24.74
2022-09-04T11:36:49.467Z,24.67
2022-09-04T11:39:32.824Z,24.57
2022-09-04T11:42:35.991Z,24.27
2022-09-04T11:45:41.542Z,24.31
2022-09-04T11:48:21.143Z,24.31
2022-09-04T11:51:04.352Z,24.30
2022-09-04T11:54:02.578Z,24.33
2022-09-04T11:57:14.001Z,24.25
2022-09-04T12:00:03.111Z,24.27
2022-09-04T12:02:47.692Z,24.19
2022-09-04T12:05:44.035Z,24.08
2022-09-04T12:08:31.655Z,24.05
2022-09-04T12:11:10.550Z,23.92
2022-09-04T12:14:04.615Z,23.66
2022-09-04T12:16:56.295Z,23.91
2022-09-04T12:19:50.525Z,23.90
2022-09-04T12:22:36.967Z,23.87
2022-09-04T12:25:10.982Z,23.79
2022-09-04T12:28:03.873Z,23.61
2022-09-04T12:30:41.350Z,23.79
2022-09-04T12:33:27.350Z,23.74
2022-09-04T12:36:00.903Z,23.79
2022-09-04T12:38:49.749Z,23.65
2022-09-04T12:41:36.395Z,23.65
2022-09-04T12:44:18.808Z,23.47
2022-09-04T12:47:26.025Z,23.41
2022-09-04T12:50:18.714Z,23.39
2022-09-04T12:52:52.617Z,23.36
2022-09-04T12:55:23.516Z,23.26
2022-09-04T12:58:25.299Z,23.09
2022-09-04T13:01:34.594Z,23.21
2022-09-04T13:04:44.667Z,23.13
2022-09-04T13:07:48.035Z,23.08
2022-09-04T13:10:45.837Z,22.96
2022-09-04T13:13:34.496Z,22.95
2022-09-04T13:16:55.239Z,22.92
2022-09-04T13:19:40.685Z,22.92
2022-09-04T13:22:31.577Z,22.79
2022-09-04T13:25:15.266Z,22.82
2022-09-04T13:27:52.054Z,22.85
2022-09-04T13:30:24.693Z,22.84
2022-09-04T13:32:58.477Z,22.78
2022-09-04T13:36:02.468Z,22.77
2022-09-04T13:39:02.925Z,22.54
2022-09-04T13:42:01.626Z,22.75
2022-09-04T13:44:58.189Z,22.77
2022-09-04T13:47:32.760Z,22.76
2022-09-04T13:50:20.690Z,22.58
2022-09-04T13:53:12.420Z,22.67
2022-09-04T13:55:45.795Z,22.52
2022-09-04T13:58:20.436Z,22.65
2022-09-04T14:00:52.588Z,22.61
2022-09-04T14:03:45.255Z,22.60
2022-09-04T14:06:16.942Z,22.61
2022-09-04T14:09:04.471Z,22.44
2022-09-04T14:11:50.971Z,22.64
2022-09-04T14:14:49.102Z,22.44
2022-09-04T14:17:26.924Z,22.42
2022-09-04T14:20:11.067Z,22.40
2022-09-04T14:22:49.549Z,22.35
2022-09-04T14:25:30.720Z,22.29
2022-09-04T14:28:30.143Z,22.24
2022-09-04T14:31:16.025Z,22.16
2022-09-04T14:33:57.815Z,21.90
2022-09-04T14:36:54.741Z,21.97
2022-09-04T14:39:44.980Z,21.95
2022-09-04T14:42:22.728Z,21.95
2022-09-04T14:45:18.881Z,21.96
2022-09-04T14:47:55.131Z,21.58
2022-09-04T14:50:28.998Z,21.40
2022-09-04T14:53:01.149Z,21.73
2022-09-04T14:55:32.762Z,21.76
2022-09-04T14:58:23.497Z,21.86
2022-09-04T15:01:20.904Z,21.75
2022-09-04T15:04:07.191Z,21.89
2022-09-04T15:07:09.760Z,21.85
2022-09-04T15:09:43.660Z,21.71
2022-09-04T15:12:24.205Z,21.85
2022-09-04T15:15:03.570Z,21.69
2022-09-04T15:17:32.900Z,21.80
2022-09-04T15:20:09.123Z,21.35
2022-09-04T15:22:39.411Z,21.43
2022-09-04T15:25:08.908Z,21.70
2022-09-04T15:28:00.012Z,21.66
2022-09-04T15:30:40.552Z,21.64
2022-09-04T15:33:20.181Z,21.60
2022-09-04T15:36:08.966Z,21.55
2022-09-04T15:38:38.207Z,21.16
2022-09-04T15:41:29.407Z,21.47
2022-09-04T15:44:13.414Z,20.98
2022-09-04T15:47:11.741Z,21.26
2022-09-04T15:49:39.077Z,21.37
2022-09-04T15:52:24.403Z,21.21
2022-09-04T15:55:11.276Z,21.13
2022-09-04T15:57:59.938Z,21.26
2022-09-04T16:00:29.659Z,21.18
2022-09-04T16:03:13.178Z,21.27
2022-09-04T16:05:45.318Z,21.27
2022-09-04T16:08:23.736Z,21.25
2022-09-04T16:11:22.805Z,21.22
2022-09-04T16:13:51.045Z,21.23
2022-09-04T16:16:32.500Z,21.22
2022-09-04T16:19:12.433Z,21.23
2022-09-04T16:21:59.020Z,21.13
2022-09-04T16:24:35.520Z,21.02
2022-09-04T16:27:08.777Z,20.89
2022-09-04T16:29:47.013Z,21.17
2022-09-04T16:32:22.295Z,21.11
2022-09-04T16:34:58.545Z,21.12
2022-09-04T16:37:32.025Z,21.14
2022-09-04T16:40:19.018Z,21.11
2022-09-04T16:43:12.199Z,21.09
2022-09-04T16:45:51.654Z,20.92
2022-09-04T16:48:38.111Z,20.85
2022-09-04T16:51:46.178Z,20.58
2022-09-04T16:54:35.586Z,20.90
2022-09-04T16:57:15.937Z,20.91
2022-09-04T16:59:50.232Z,20.88
2022-09-04T17:02:43.675Z,20.68
2022-09-04T17:05:35.318Z,20.74
2022-09-04T17:08:16.318Z,20.64
2022-09-04T17:10:53.130Z,20.64
2022-09-04T17:13:28.774Z,20.44
2022-09-04T17:16:24.467Z,20.52
2022-09-04T17:18:54.885Z,20.57
2022-09-04T17:25:24.405Z,20.64
2022-09-04T17:29:14.170Z,20.57
2022-09-04T17:29:16.662Z,20.59
2022-09-04T17:31:28.816Z,20.51
2022-09-04T17:40:38.155Z,20.48
2022-09-04T17:40:54.948Z,20.25
2022-09-04T17:40:55.089Z,20.36
2022-09-04T17:44:02.192Z,20.32
2022-09-04T17:46:30.516Z,20.30
2022-09-04T17:49:01.666Z,20.28
2022-09-04T17:51:35.972Z,20.27
2022-09-04T17:54:13.581Z,20.05
2022-09-04T17:57:03.546Z,19.93
2022-09-04T17:59:45.541Z,20.29
2022-09-04T18:02:26.933Z,20.28
2022-09-04T18:05:03.606Z,20.21
2022-09-04T18:08:07.782Z,19.93
2022-09-04T18:10:35.982Z,19.74
2022-09-04T18:13:36.484Z,19.94
2022-09-04T18:16:35.670Z,19.95
2022-09-04T18:19:42.633Z,19.96
2022-09-04T18:22:46.034Z,19.94
2022-09-04T18:25:25.651Z,19.85
2022-09-04T18:28:15.907Z,19.73
2022-09-04T18:37:07.895Z,19.87
2022-09-04T18:37:24.742Z,19.67
2022-09-04T18:37:45.688Z,19.64
2022-09-04T18:44:29.194Z,19.74
2022-09-04T18:50:21.836Z,19.77
2022-09-04T18:50:28.381Z,19.50
2022-09-04T18:50:33.209Z,19.56
2022-09-04T18:52:30.192Z,19.29
2022-09-04T18:55:08.434Z,19.71
2022-09-04T18:57:50.311Z,19.59
2022-09-04T19:00:59.603Z,19.72
2022-09-04T19:03:41.299Z,19.62
2022-09-04T19:06:19.623Z,19.15
2022-09-04T19:08:51.976Z,19.29
2022-09-04T19:11:27.690Z,19.22
2022-09-04T19:14:09.986Z,19.45
2022-09-04T19:16:49.731Z,19.57
2022-09-04T19:19:36.152Z,19.14
2022-09-04T19:22:16.936Z,19.53
2022-09-04T19:24:51.974Z,19.51
2022-09-04T19:27:31.881Z,19.45
2022-09-04T19:30:18.015Z,19.36
2022-09-04T19:33:00.421Z,19.38
2022-09-04T19:35:43.281Z,19.37
2022-09-04T19:45:02.377Z,19.32
2022-09-04T19:46:09.469Z,19.00
2022-09-04T19:46:17.046Z,18.92
2022-09-04T19:47:28.688Z,19.22
2022-09-04T19:53:17.754Z,19.18
2022-09-04T19:53:38.759Z,18.82
2022-09-04T19:56:26.894Z,18.82
2022-09-04T19:59:05.929Z,19.14
2022-09-04T20:01:45.236Z,19.14
2022-09-04T20:04:41.143Z,19.13
2022-09-04T20:08:07.409Z,19.18
2022-09-04T20:10:45.579Z,18.89
2022-09-04T20:13:27.147Z,18.92
2022-09-04T20:16:04.425Z,18.96
2022-09-04T20:18:39.579Z,18.87
2022-09-04T20:21:20.461Z,18.97
2022-09-04T20:24:11.863Z,18.71
2022-09-04T20:26:43.311Z,18.85
2022-09-04T20:29:27.484Z,18.85
2022-09-04T20:32:02.876Z,18.88
2022-09-04T20:34:57.019Z,18.78
2022-09-04T20:37:45.913Z,18.87
2022-09-04T20:40:27.100Z,18.82
2022-09-04T20:42:56.888Z,18.81
2022-09-04T20:47:46.249Z,18.80
2022-09-04T20:52:51.144Z,18.74
2022-09-04T20:52:55.457Z,18.75
2022-09-04T20:54:28.850Z,18.72
2022-09-04T21:00:41.977Z,18.63
2022-09-04T21:03:13.968Z,18.70
2022-09-04T21:03:20.093Z,18.71
2022-09-04T21:06:11.476Z,18.52
2022-09-04T21:08:49.418Z,18.70
2022-09-04T21:11:40.879Z,18.75
2022-09-04T21:14:27.017Z,18.71
2022-09-04T21:17:33.346Z,18.71
2022-09-04T21:20:11.258Z,18.66
2022-09-04T21:23:16.956Z,18.70
2022-09-04T21:26:18.191Z,18.70
2022-09-04T21:29:11.099Z,18.74
2022-09-04T21:32:26.379Z,18.71
2022-09-04T21:35:40.336Z,18.69
2022-09-04T21:38:32.160Z,18.52
2022-09-04T21:41:13.022Z,18.56
2022-09-04T21:44:03.177Z,18.41
2022-09-04T21:46:52.978Z,18.58
2022-09-04T21:49:38.653Z,18.41
2022-09-04T21:52:27.611Z,18.58
2022-09-04T21:56:49.337Z,18.58
2022-09-04T22:02:35.359Z,18.36
2022-09-04T22:02:40.141Z,18.54
2022-09-04T22:04:09.376Z,18.55
2022-09-04T22:09:02.193Z,18.54
2022-09-04T22:13:28.701Z,18.52
2022-09-04T22:13:42.209Z,18.53
2022-09-04T22:16:29.347Z,18.54
2022-09-04T22:19:31.453Z,18.55
2022-09-04T22:22:08.531Z,18.56
2022-09-04T22:25:17.806Z,18.52
2022-09-04T22:28:13.507Z,18.34
2022-09-04T22:30:40.654Z,18.45
2022-09-04T22:33:30.017Z,18.41
2022-09-04T22:36:06.240Z,18.39
2022-09-04T22:38:52.575Z,18.41
2022-09-04T22:41:44.767Z,18.41
2022-09-04T22:44:43.350Z,18.46
2022-09-04T22:47:44.918Z,18.42
2022-09-04T22:50:48.955Z,18.34
2022-09-04T22:53:38.590Z,18.35
2022-09-04T22:56:24.749Z,18.11
2022-09-04T22:59:20.397Z,18.31
2022-09-04T23:02:20.868Z,18.31
2022-09-04T23:05:14.921Z,18.29
2022-09-04T23:12:23.385Z,18.26
2022-09-04T23:13:57.315Z,18.29
2022-09-04T23:14:17.565Z,18.30
2022-09-04T23:17:29.221Z,18.16
2022-09-04T23:26:13.741Z,18.32
2022-09-04T23:26:43.381Z,18.31
2022-09-04T23:26:49.221Z,18.03
2022-09-04T23:29:26.797Z,18.22
2022-09-04T23:32:22.353Z,18.24
2022-09-04T23:35:14.533Z,18.25
2022-09-04T23:38:03.032Z,18.33
2022-09-04T23:40:47.586Z,18.19
2022-09-04T23:43:38.170Z,18.26
2022-09-04T23:46:18.566Z,18.21
2022-09-04T23:49:06.844Z,18.22
2022-09-04T23:51:55.580Z,18.05
2022-09-04T23:55:00.778Z,18.16
2022-09-04T23:57:51.030Z,18.11
